Aérodrome :
LOGIN :

S'inscrire | Disclaimer

   EN    FR    IT 

 










Légende :    VFR   VFR Marginal   IFR   IFR Intensif   IFR Très Intensif
Visi : 
Plafond : 
>= 8 km
>= 3000ft
5 à 8 km
1000 à 3000 ft
1500m à 5 km
500 à 1000 ft
800 à 1500m
200 à 500 ft
< 800m
< 200 ft
Symboles :   Orages  Brouillard  Fortes neiges  Fortes précipitations  Vent > 20 kt
SIGMETs :   Divers  Orages  Givrage  Turbulence  Onde Orograph.  Cendres Volcan.






- Altitude de l'aérodrome : 330 ft
- Code IATA : LVA


LFOV - Laval-Entrammes

DERNIER METAR :
  • 150130Z AUTO 22015KT 190V250 9999 -RA FEW014/// SCT025/// BKN049/// ///TCU 11/10 Q0999

METARs EXPIRÉS :
  • 150100Z AUTO 22015KT 9999 FEW012/// BKN019/// BKN027/// ///TCU 11/10 Q0998
  • 150030Z AUTO 22016G30KT 180V250 9999 -RADZ BKN017 OVC026 11/09 Q0998
  • 150000Z AUTO 22017G30KT 190V260 9999 BKN019 BKN026 OVC160 11/09 Q0998
  • 142330Z AUTO 22018G30KT 190V250 9999 BKN020 BKN026 BKN032 11/09 Q0998
  • 142300Z AUTO 22019G32KT 180V250 9999 SCT016 BKN022 BKN030 11/09 Q0998

TAF N/A



MET'MAP, la Météo Aéronautique d'un coup d'oeil ! - Copyright ORBIFLY Décembre 2007 - Disclaimer

ORBIFLY MET'MAP TEAM :

Programmation & Développement : Alexandra Zaïnal
Sur une idée originale de : Baudouin d'Aumeries
Assistance à la programmation : Marc-Olivier Méhu
Soutien technique & logistique : Manuel Goepfert

Contact : metmap@orbifly.com




SOURCES & CREDITS :

   NOAA